sensor_id;sensor_type;location;lat;lon;timestamp;pressure;altitude;pressure_sealevel;temperature;humidity
58239;BME280;44037;55.638;37.356;2023-03-01T00:00:06;98328.88;;;-5.08;60.28
58239;BME280;44037;55.638;37.356;2023-03-01T00:02:34;98330.38;;;-5.12;60.44
58239;BME280;44037;55.638;37.356;2023-03-01T00:05:01;98325.09;;;-5.16;60.26
58239;BME280;44037;55.638;37.356;2023-03-01T00:07:29;98324.78;;;-5.22;60.12
58239;BME280;44037;55.638;37.356;2023-03-01T00:09:56;98326.38;;;-5.25;60.37
58239;BME280;44037;55.638;37.356;2023-03-01T00:12:24;98327.06;;;-5.27;60.95
58239;BME280;44037;55.638;37.356;2023-03-01T00:14:52;98321.00;;;-5.31;60.93
58239;BME280;44037;55.638;37.356;2023-03-01T00:17:19;98327.63;;;-5.33;60.89
58239;BME280;44037;55.638;37.356;2023-03-01T00:19:46;98331.81;;;-5.33;61.05
58239;BME280;44037;55.638;37.356;2023-03-01T00:22:13;98326.59;;;-5.36;61.19
58239;BME280;44037;55.638;37.356;2023-03-01T00:24:40;98318.25;;;-5.35;61.50
58239;BME280;44037;55.638;37.356;2023-03-01T00:27:07;98316.50;;;-5.36;61.04
58239;BME280;44037;55.638;37.356;2023-03-01T00:29:35;98321.34;;;-5.41;61.14
58239;BME280;44037;55.638;37.356;2023-03-01T00:32:03;98319.53;;;-5.44;61.14
58239;BME280;44037;55.638;37.356;2023-03-01T00:34:30;98319.34;;;-5.47;61.04
58239;BME280;44037;55.638;37.356;2023-03-01T00:36:57;98323.53;;;-5.47;61.08
58239;BME280;44037;55.638;37.356;2023-03-01T00:39:30;98328.66;;;-5.46;61.66
58239;BME280;44037;55.638;37.356;2023-03-01T00:41:58;98328.44;;;-5.50;61.44
58239;BME280;44037;55.638;37.356;2023-03-01T00:44:25;98320.69;;;-5.53;61.54
58239;BME280;44037;55.638;37.356;2023-03-01T00:46:55;98317.22;;;-5.56;61.18
58239;BME280;44037;55.638;37.356;2023-03-01T00:49:22;98316.28;;;-5.58;61.33
58239;BME280;44037;55.638;37.356;2023-03-01T00:51:53;98317.94;;;-5.58;61.82
58239;BME280;44037;55.638;37.356;2023-03-01T00:54:20;98314.47;;;-5.60;61.44
58239;BME280;44037;55.638;37.356;2023-03-01T00:56:47;98309.34;;;-5.62;61.81
58239;BME280;44037;55.638;37.356;2023-03-01T00:59:14;98313.50;;;-5.62;61.78
58239;BME280;44037;55.638;37.356;2023-03-01T01:01:42;98312.66;;;-5.63;62.00
58239;BME280;44037;55.638;37.356;2023-03-01T01:04:11;98294.09;;;-5.63;61.85
58239;BME280;44037;55.638;37.356;2023-03-01T01:06:40;98304.03;;;-5.66;61.69
58239;BME280;44037;55.638;37.356;2023-03-01T01:09:10;98303.19;;;-5.67;61.69
58239;BME280;44037;55.638;37.356;2023-03-01T01:11:42;98300.59;;;-5.68;61.87
58239;BME280;44037;55.638;37.356;2023-03-01T01:14:10;98303.13;;;-5.68;62.17
58239;BME280;44037;55.638;37.356;2023-03-01T01:16:37;98299.63;;;-5.71;61.99
58239;BME280;44037;55.638;37.356;2023-03-01T01:19:04;98304.53;;;-5.74;62.29
58239;BME280;44037;55.638;37.356;2023-03-01T01:21:33;98302.63;;;-5.78;62.46
58239;BME280;44037;55.638;37.356;2023-03-01T01:24:02;98296.72;;;-5.78;62.47
58239;BME280;44037;55.638;37.356;2023-03-01T01:26:32;98300.03;;;-5.79;62.64
58239;BME280;44037;55.638;37.356;2023-03-01T01:29:00;98301.75;;;-5.78;62.74
58239;BME280;44037;55.638;37.356;2023-03-01T01:31:28;98295.75;;;-5.80;63.12
58239;BME280;44037;55.638;37.356;2023-03-01T01:33:55;98305.00;;;-5.81;63.56
58239;BME280;44037;55.638;37.356;2023-03-01T01:36:23;98299.97;;;-5.81;63.47
58239;BME280;44037;55.638;37.356;2023-03-01T01:38:52;98303.25;;;-5.82;63.73
58239;BME280;44037;55.638;37.356;2023-03-01T01:41:19;98307.34;;;-5.84;63.70
58239;BME280;44037;55.638;37.356;2023-03-01T01:43:48;98309.88;;;-5.84;64.25
58239;BME280;44037;55.638;37.356;2023-03-01T01:46:23;98306.47;;;-5.84;64.38
58239;BME280;44037;55.638;37.356;2023-03-01T01:48:55;98308.06;;;-5.87;64.54
58239;BME280;44037;55.638;37.356;2023-03-01T01:51:27;98316.31;;;-5.89;64.41
58239;BME280;44037;55.638;37.356;2023-03-01T01:54:00;98315.53;;;-5.88;64.73
58239;BME280;44037;55.638;37.356;2023-03-01T01:56:29;98305.22;;;-5.93;64.60
58239;BME280;44037;55.638;37.356;2023-03-01T01:58:56;98316.00;;;-5.95;64.82
58239;BME280;44037;55.638;37.356;2023-03-01T02:01:25;98317.66;;;-5.96;64.85
58239;BME280;44037;55.638;37.356;2023-03-01T02:03:52;98322.03;;;-5.93;65.41
58239;BME280;44037;55.638;37.356;2023-03-01T02:06:24;98313.66;;;-5.92;65.19
58239;BME280;44037;55.638;37.356;2023-03-01T02:08:59;98306.78;;;-5.95;65.27
58239;BME280;44037;55.638;37.356;2023-03-01T02:11:29;98309.22;;;-5.96;65.36
58239;BME280;44037;55.638;37.356;2023-03-01T02:13:56;98299.78;;;-6.00;65.32
58239;BME280;44037;55.638;37.356;2023-03-01T02:16:25;98305.44;;;-6.05;65.46
58239;BME280;44037;55.638;37.356;2023-03-01T02:18:52;98296.84;;;-6.08;65.66
58239;BME280;44037;55.638;37.356;2023-03-01T02:21:30;98301.91;;;-6.08;65.87
58239;BME280;44037;55.638;37.356;2023-03-01T02:24:07;98300.03;;;-6.12;65.85
58239;BME280;44037;55.638;37.356;2023-03-01T02:26:41;98304.19;;;-6.13;66.41
58239;BME280;44037;55.638;37.356;2023-03-01T02:29:10;98307.59;;;-6.12;66.44
58239;BME280;44037;55.638;37.356;2023-03-01T02:31:38;98311.56;;;-6.16;66.32
58239;BME280;44037;55.638;37.356;2023-03-01T02:34:09;98311.25;;;-6.22;66.46
58239;BME280;44037;55.638;37.356;2023-03-01T02:36:40;98319.38;;;-6.28;66.41
58239;BME280;44037;55.638;37.356;2023-03-01T02:39:12;98323.44;;;-6.30;66.93
58239;BME280;44037;55.638;37.356;2023-03-01T02:41:46;98309.03;;;-6.33;67.35
58239;BME280;44037;55.638;37.356;2023-03-01T02:44:16;98316.59;;;-6.33;67.25
58239;BME280;44037;55.638;37.356;2023-03-01T02:46:45;98319.97;;;-6.32;67.66
58239;BME280;44037;55.638;37.356;2023-03-01T02:49:19;98329.72;;;-6.38;68.01
58239;BME280;44037;55.638;37.356;2023-03-01T02:51:56;98315.28;;;-6.41;67.79
58239;BME280;44037;55.638;37.356;2023-03-01T02:54:30;98321.91;;;-6.43;68.14
58239;BME280;44037;55.638;37.356;2023-03-01T02:56:59;98323.50;;;-6.45;68.21
58239;BME280;44037;55.638;37.356;2023-03-01T02:59:31;98326.78;;;-6.46;68.15
58239;BME280;44037;55.638;37.356;2023-03-01T03:02:00;98321.56;;;-6.49;68.29
58239;BME280;44037;55.638;37.356;2023-03-01T03:04:28;98321.50;;;-6.51;68.30
58239;BME280;44037;55.638;37.356;2023-03-01T03:06:55;98325.75;;;-6.50;68.76
58239;BME280;44037;55.638;37.356;2023-03-01T03:09:22;98325.56;;;-6.53;68.34
58239;BME280;44037;55.638;37.356;2023-03-01T03:11:49;98330.63;;;-6.53;68.66
58239;BME280;44037;55.638;37.356;2023-03-01T03:14:17;98325.66;;;-6.51;68.88
58239;BME280;44037;55.638;37.356;2023-03-01T03:16:47;98333.91;;;-6.54;68.71
58239;BME280;44037;55.638;37.356;2023-03-01T03:19:15;98333.22;;;-6.51;69.18
58239;BME280;44037;55.638;37.356;2023-03-01T03:21:42;98332.25;;;-6.53;69.32
58239;BME280;44037;55.638;37.356;2023-03-01T03:24:09;98340.53;;;-6.56;69.53
58239;BME280;44037;55.638;37.356;2023-03-01T03:26:36;98334.53;;;-6.58;69.56
58239;BME280;44037;55.638;37.356;2023-03-01T03:29:04;98326.00;;;-6.60;69.63
58239;BME280;44037;55.638;37.356;2023-03-01T03:31:31;98336.00;;;-6.61;69.59
58239;BME280;44037;55.638;37.356;2023-03-01T03:33:59;98340.97;;;-6.63;69.69
58239;BME280;44037;55.638;37.356;2023-03-01T03:36:26;98337.50;;;-6.65;69.91
58239;BME280;44037;55.638;37.356;2023-03-01T03:38:54;98341.50;;;-6.69;69.78
58239;BME280;44037;55.638;37.356;2023-03-01T03:41:21;98354.78;;;-6.71;70.22
58239;BME280;44037;55.638;37.356;2023-03-01T03:43:48;98342.94;;;-6.72;70.56
58239;BME280;44037;55.638;37.356;2023-03-01T03:46:15;98341.13;;;-6.75;70.50
58239;BME280;44037;55.638;37.356;2023-03-01T03:48:44;98340.97;;;-6.78;70.53
58239;BME280;44037;55.638;37.356;2023-03-01T03:51:13;98349.28;;;-6.79;70.96
58239;BME280;44037;55.638;37.356;2023-03-01T03:53:41;98340.97;;;-6.78;70.80
58239;BME280;44037;55.638;37.356;2023-03-01T03:56:08;98350.06;;;-6.80;70.87
58239;BME280;44037;55.638;37.356;2023-03-01T03:58:36;98348.38;;;-6.81;70.87
58239;BME280;44037;55.638;37.356;2023-03-01T04:01:03;98346.53;;;-6.84;71.01
58239;BME280;44037;55.638;37.356;2023-03-01T04:03:31;98342.38;;;-6.83;71.24
58239;BME280;44037;55.638;37.356;2023-03-01T04:05:59;98348.19;;;-6.84;71.25
58239;BME280;44037;55.638;37.356;2023-03-01T04:08:28;98347.22;;;-6.86;71.21
58239;BME280;44037;55.638;37.356;2023-03-01T04:10:58;98342.19;;;-6.86;71.14
58239;BME280;44037;55.638;37.356;2023-03-01T04:13:46;98361.56;;;-6.85;71.36
58239;BME280;44037;55.638;37.356;2023-03-01T04:16:13;98353.22;;;-6.84;71.36
58239;BME280;44037;55.638;37.356;2023-03-01T04:18:40;98358.84;;;-6.88;71.27
58239;BME280;44037;55.638;37.356;2023-03-01T04:21:07;98363.72;;;-6.91;71.31
58239;BME280;44037;55.638;37.356;2023-03-01T04:23:36;98356.78;;;-6.96;71.21
58239;BME280;44037;55.638;37.356;2023-03-01T04:26:03;98362.47;;;-6.98;71.46
58239;BME280;44037;55.638;37.356;2023-03-01T04:28:32;98365.97;;;-6.96;71.74
58239;BME280;44037;55.638;37.356;2023-03-01T04:31:04;98370.16;;;-6.97;71.83
58239;BME280;44037;55.638;37.356;2023-03-01T04:33:38;98363.63;;;-6.93;71.48
58239;BME280;44037;55.638;37.356;2023-03-01T04:36:07;98372.94;;;-6.92;71.75
58239;BME280;44037;55.638;37.356;2023-03-01T04:38:37;98373.13;;;-6.89;71.79
58239;BME280;44037;55.638;37.356;2023-03-01T04:41:05;98368.94;;;-6.88;71.69
58239;BME280;44037;55.638;37.356;2023-03-01T04:43:32;98374.16;;;-6.85;72.02
58239;BME280;44037;55.638;37.356;2023-03-01T04:46:00;98371.72;;;-6.84;71.96
58239;BME280;44037;55.638;37.356;2023-03-01T04:48:29;98389.44;;;-6.82;71.87
58239;BME280;44037;55.638;37.356;2023-03-01T04:50:58;98381.78;;;-6.84;71.81
58239;BME280;44037;55.638;37.356;2023-03-01T04:53:25;98374.34;;;-6.82;71.88
58239;BME280;44037;55.638;37.356;2023-03-01T04:55:54;98387.00;;;-6.81;71.96
58239;BME280;44037;55.638;37.356;2023-03-01T04:58:21;98387.00;;;-6.81;71.78
58239;BME280;44037;55.638;37.356;2023-03-01T05:00:48;98378.94;;;-6.75;72.09
58239;BME280;44037;55.638;37.356;2023-03-01T05:03:15;98388.56;;;-6.68;71.67
58239;BME280;44037;55.638;37.356;2023-03-01T05:05:45;98385.38;;;-6.65;71.31
58239;BME280;44037;55.638;37.356;2023-03-01T05:08:13;98383.09;;;-6.60;71.72
58239;BME280;44037;55.638;37.356;2023-03-01T05:10:44;98397.63;;;-6.56;71.64
58239;BME280;44037;55.638;37.356;2023-03-01T05:13:13;98385.44;;;-6.49;71.60
58239;BME280;44037;55.638;37.356;2023-03-01T05:15:47;98396.84;;;-6.40;71.72
58239;BME280;44037;55.638;37.356;2023-03-01T05:18:14;98388.75;;;-6.35;71.64
58239;BME280;44037;55.638;37.356;2023-03-01T05:20:42;98382.16;;;-6.33;71.72
58239;BME280;44037;55.638;37.356;2023-03-01T05:23:10;98400.41;;;-6.37;71.48
58239;BME280;44037;55.638;37.356;2023-03-01T05:25:37;98390.06;;;-6.41;71.34
58239;BME280;44037;55.638;37.356;2023-03-01T05:28:07;98397.63;;;-6.41;71.50
58239;BME280;44037;55.638;37.356;2023-03-01T05:30:38;98395.03;;;-6.43;71.58
58239;BME280;44037;55.638;37.356;2023-03-01T05:33:06;98391.69;;;-6.42;71.76
58239;BME280;44037;55.638;37.356;2023-03-01T05:35:39;98396.91;;;-6.39;71.58
58239;BME280;44037;55.638;37.356;2023-03-01T05:38:07;98409.09;;;-6.31;71.91
58239;BME280;44037;55.638;37.356;2023-03-01T05:40:34;98399.09;;;-6.30;71.31
58239;BME280;44037;55.638;37.356;2023-03-01T05:43:01;98417.00;;;-6.25;71.47
58239;BME280;44037;55.638;37.356;2023-03-01T05:45:31;98408.81;;;-6.21;71.15
58239;BME280;44037;55.638;37.356;2023-03-01T05:48:00;98412.81;;;-6.10;71.21
58239;BME280;44037;55.638;37.356;2023-03-01T05:50:29;98418.66;;;-5.94;71.48
58239;BME280;44037;55.638;37.356;2023-03-01T05:53:00;98425.06;;;-5.84;70.71
58239;BME280;44037;55.638;37.356;2023-03-01T05:55:29;98423.75;;;-5.78;70.69
58239;BME280;44037;55.638;37.356;2023-03-01T05:57:59;98420.41;;;-5.62;71.18
58239;BME280;44037;55.638;37.356;2023-03-01T06:00:27;98423.81;;;-5.45;70.52
58239;BME280;44037;55.638;37.356;2023-03-01T06:02:56;98421.94;;;-5.32;70.25
58239;BME280;44037;55.638;37.356;2023-03-01T06:05:25;98422.75;;;-5.17;70.14
58239;BME280;44037;55.638;37.356;2023-03-01T06:07:52;98424.31;;;-5.02;69.88
58239;BME280;44037;55.638;37.356;2023-03-01T06:10:20;98416.44;;;-4.92;69.48
58239;BME280;44037;55.638;37.356;2023-03-01T06:12:48;98419.41;;;-4.83;69.63
58239;BME280;44037;55.638;37.356;2023-03-01T06:15:16;98420.81;;;-4.71;69.32
58239;BME280;44037;55.638;37.356;2023-03-01T06:17:45;98429.22;;;-4.54;69.36
58239;BME280;44037;55.638;37.356;2023-03-01T06:20:14;98428.03;;;-4.44;69.29
58239;BME280;44037;55.638;37.356;2023-03-01T06:22:44;98428.19;;;-4.41;69.26
58239;BME280;44037;55.638;37.356;2023-03-01T06:25:13;98440.97;;;-4.38;68.17
58239;BME280;44037;55.638;37.356;2023-03-01T06:27:41;98449.34;;;-4.39;68.18
58239;BME280;44037;55.638;37.356;2023-03-01T06:30:10;98446.69;;;-4.42;67.46
58239;BME280;44037;55.638;37.356;2023-03-01T06:32:38;98453.31;;;-4.44;67.22
58239;BME280;44037;55.638;37.356;2023-03-01T06:35:08;98448.56;;;-4.38;67.39
58239;BME280;44037;55.638;37.356;2023-03-01T06:37:35;98454.28;;;-4.42;66.24
58239;BME280;44037;55.638;37.356;2023-03-01T06:40:05;98454.84;;;-4.48;66.94
58239;BME280;44037;55.638;37.356;2023-03-01T06:42:34;98459.47;;;-4.39;66.80
58239;BME280;44037;55.638;37.356;2023-03-01T06:45:01;98461.41;;;-4.34;67.04
58239;BME280;44037;55.638;37.356;2023-03-01T06:47:30;98458.63;;;-4.22;66.86
58239;BME280;44037;55.638;37.356;2023-03-01T06:49:58;98455.19;;;-4.06;65.94
58239;BME280;44037;55.638;37.356;2023-03-01T06:52:26;98452.75;;;-4.04;65.51
58239;BME280;44037;55.638;37.356;2023-03-01T06:54:53;98456.56;;;-3.94;66.11
58239;BME280;44037;55.638;37.356;2023-03-01T06:57:21;98455.19;;;-3.88;65.14
58239;BME280;44037;55.638;37.356;2023-03-01T06:59:48;98449.06;;;-3.93;64.69
58239;BME280;44037;55.638;37.356;2023-03-01T07:02:16;98460.41;;;-3.84;64.99
58239;BME280;44037;55.638;37.356;2023-03-01T07:04:43;98450.44;;;-3.81;65.62
58239;BME280;44037;55.638;37.356;2023-03-01T07:07:10;98455.66;;;-3.78;66.00
58239;BME280;44037;55.638;37.356;2023-03-01T07:09:37;98461.41;;;-3.81;65.94
58239;BME280;44037;55.638;37.356;2023-03-01T07:12:05;98457.94;;;-3.83;65.57
58239;BME280;44037;55.638;37.356;2023-03-01T07:14:33;98460.19;;;-3.89;65.26
58239;BME280;44037;55.638;37.356;2023-03-01T07:17:01;98471.75;;;-3.94;64.67
58239;BME280;44037;55.638;37.356;2023-03-01T07:19:28;98477.16;;;-4.05;64.13
58239;BME280;44037;55.638;37.356;2023-03-01T07:21:55;98481.56;;;-4.19;64.02
58239;BME280;44037;55.638;37.356;2023-03-01T07:24:22;98476.84;;;-4.29;63.64
58239;BME280;44037;55.638;37.356;2023-03-01T07:26:49;98475.81;;;-4.33;64.49
58239;BME280;44037;55.638;37.356;2023-03-01T07:29:17;98484.28;;;-4.32;64.89
58239;BME280;44037;55.638;37.356;2023-03-01T07:31:45;98484.56;;;-4.26;65.41
58239;BME280;44037;55.638;37.356;2023-03-01T07:34:12;98483.94;;;-4.22;64.67
58239;BME280;44037;55.638;37.356;2023-03-01T07:36:39;98482.03;;;-4.26;64.29
58239;BME280;44037;55.638;37.356;2023-03-01T07:39:09;98493.09;;;-4.24;64.74
58239;BME280;44037;55.638;37.356;2023-03-01T07:41:36;98494.63;;;-4.27;64.04
58239;BME280;44037;55.638;37.356;2023-03-01T07:44:03;98489.00;;;-4.22;64.51
58239;BME280;44037;55.638;37.356;2023-03-01T07:46:31;98488.16;;;-4.04;65.42
58239;BME280;44037;55.638;37.356;2023-03-01T07:48:59;98500.47;;;-3.76;65.52
58239;BME280;44037;55.638;37.356;2023-03-01T07:51:26;98498.31;;;-3.68;64.95
58239;BME280;44037;55.638;37.356;2023-03-01T07:53:53;98490.34;;;-3.58;65.07
58239;BME280;44037;55.638;37.356;2023-03-01T07:56:20;98498.00;;;-3.38;64.97
58239;BME280;44037;55.638;37.356;2023-03-01T07:58:47;98496.31;;;-3.19;63.97
58239;BME280;44037;55.638;37.356;2023-03-01T08:01:16;98478.19;;;-3.09;63.17
58239;BME280;44037;55.638;37.356;2023-03-01T08:03:43;98490.25;;;-3.03;63.10
58239;BME280;44037;55.638;37.356;2023-03-01T08:06:13;98492.06;;;-3.01;63.22
58239;BME280;44037;55.638;37.356;2023-03-01T08:08:41;98494.19;;;-3.10;63.06
58239;BME280;44037;55.638;37.356;2023-03-01T08:11:10;98490.44;;;-3.18;62.44
58239;BME280;44037;55.638;37.356;2023-03-01T08:13:38;98490.06;;;-3.08;63.38
58239;BME280;44037;55.638;37.356;2023-03-01T08:16:07;98488.06;;;-3.15;61.48
58239;BME280;44037;55.638;37.356;2023-03-01T08:18:34;98492.19;;;-3.17;61.37
58239;BME280;44037;55.638;37.356;2023-03-01T08:21:03;98491.25;;;-3.19;61.70
58239;BME280;44037;55.638;37.356;2023-03-01T08:23:32;98495.56;;;-3.17;62.64
58239;BME280;44037;55.638;37.356;2023-03-01T08:26:06;98492.97;;;-3.18;62.02
58239;BME280;44037;55.638;37.356;2023-03-01T08:28:34;98486.44;;;-3.13;62.29
58239;BME280;44037;55.638;37.356;2023-03-01T08:31:02;98503.00;;;-3.02;62.49
58239;BME280;44037;55.638;37.356;2023-03-01T08:33:33;98501.69;;;-2.94;62.91
58239;BME280;44037;55.638;37.356;2023-03-01T08:36:04;98497.56;;;-2.91;61.51
58239;BME280;44037;55.638;37.356;2023-03-01T08:38:34;98492.00;;;-2.83;62.69
58239;BME280;44037;55.638;37.356;2023-03-01T08:41:01;98495.00;;;-2.72;62.61
58239;BME280;44037;55.638;37.356;2023-03-01T08:43:29;98489.81;;;-2.75;61.37
58239;BME280;44037;55.638;37.356;2023-03-01T08:45:56;98500.69;;;-2.78;61.67
58239;BME280;44037;55.638;37.356;2023-03-01T08:48:23;98513.16;;;-2.63;61.65
58239;BME280;44037;55.638;37.356;2023-03-01T08:50:51;98504.91;;;-2.58;61.56
58239;BME280;44037;55.638;37.356;2023-03-01T08:53:18;98503.53;;;-2.50;61.43
58239;BME280;44037;55.638;37.356;2023-03-01T08:55:46;98508.22;;;-2.40;61.67
58239;BME280;44037;55.638;37.356;2023-03-01T08:58:13;98507.19;;;-2.24;61.82
58239;BME280;44037;55.638;37.356;2023-03-01T09:00:40;98510.06;;;-2.16;61.03
58239;BME280;44037;55.638;37.356;2023-03-01T09:03:07;98514.16;;;-1.98;60.78
58239;BME280;44037;55.638;37.356;2023-03-01T09:05:34;98505.59;;;-1.79;60.41
58239;BME280;44037;55.638;37.356;2023-03-01T09:08:02;98514.59;;;-1.66;59.32
58239;BME280;44037;55.638;37.356;2023-03-01T09:10:29;98506.88;;;-1.47;59.83
58239;BME280;44037;55.638;37.356;2023-03-01T09:12:58;98528.59;;;-1.32;59.55
58239;BME280;44037;55.638;37.356;2023-03-01T09:15:25;98532.72;;;-1.78;57.24
58239;BME280;44037;55.638;37.356;2023-03-01T09:17:52;98542.66;;;-2.25;57.00
58239;BME280;44037;55.638;37.356;2023-03-01T09:20:19;98535.63;;;-2.52;58.09
58239;BME280;44037;55.638;37.356;2023-03-01T09:22:46;98531.66;;;-2.65;58.87
58239;BME280;44037;55.638;37.356;2023-03-01T09:25:13;98527.78;;;-2.57;58.78
58239;BME280;44037;55.638;37.356;2023-03-01T09:27:40;98550.81;;;-2.72;59.08
58239;BME280;44037;55.638;37.356;2023-03-01T09:30:10;98549.66;;;-2.79;58.99
58239;BME280;44037;55.638;37.356;2023-03-01T09:32:38;98552.50;;;-2.72;58.90
58239;BME280;44037;55.638;37.356;2023-03-01T09:35:08;98562.13;;;-3.03;59.39
58239;BME280;44037;55.638;37.356;2023-03-01T09:37:36;98544.75;;;-2.75;59.90
58239;BME280;44037;55.638;37.356;2023-03-01T09:40:06;98541.66;;;-2.68;60.38
58239;BME280;44037;55.638;37.356;2023-03-01T09:42:35;98536.72;;;-2.65;60.71
58239;BME280;44037;55.638;37.356;2023-03-01T09:45:05;98537.31;;;-2.51;60.32
58239;BME280;44037;55.638;37.356;2023-03-01T09:47:35;98532.16;;;-2.33;60.55
58239;BME280;44037;55.638;37.356;2023-03-01T09:50:06;98526.75;;;-2.21;60.42
58239;BME280;44037;55.638;37.356;2023-03-01T09:52:40;98535.16;;;-2.03;60.83
58239;BME280;44037;55.638;37.356;2023-03-01T09:55:11;98525.78;;;-1.82;60.16
58239;BME280;44037;55.638;37.356;2023-03-01T09:57:45;98529.44;;;-1.55;60.06
58239;BME280;44037;55.638;37.356;2023-03-01T10:00:23;98537.81;;;-1.36;59.83
58239;BME280;44037;55.638;37.356;2023-03-01T10:02:58;98538.44;;;-1.19;60.23
58239;BME280;44037;55.638;37.356;2023-03-01T10:05:35;98552.13;;;-1.15;59.42
58239;BME280;44037;55.638;37.356;2023-03-01T10:08:24;98530.59;;;-1.02;59.67
58239;BME280;44037;55.638;37.356;2023-03-01T10:10:55;98546.72;;;-1.02;57.97
58239;BME280;44037;55.638;37.356;2023-03-01T10:13:25;98536.81;;;-0.94;57.50
58239;BME280;44037;55.638;37.356;2023-03-01T10:15:57;98548.53;;;-0.75;57.09
58239;BME280;44037;55.638;37.356;2023-03-01T10:18:29;98546.97;;;-0.71;55.20
58239;BME280;44037;55.638;37.356;2023-03-01T10:20:59;98534.94;;;-0.53;55.78
58239;BME280;44037;55.638;37.356;2023-03-01T10:23:30;98540.75;;;-0.55;55.31
58239;BME280;44037;55.638;37.356;2023-03-01T10:26:09;98547.28;;;-0.86;55.36
58239;BME280;44037;55.638;37.356;2023-03-01T10:28:46;98553.63;;;-0.75;55.58
58239;BME280;44037;55.638;37.356;2023-03-01T10:31:20;98553.63;;;-0.75;55.32
58239;BME280;44037;55.638;37.356;2023-03-01T10:33:50;98549.31;;;-0.78;55.51
58239;BME280;44037;55.638;37.356;2023-03-01T10:36:20;98550.31;;;-0.72;55.47
58239;BME280;44037;55.638;37.356;2023-03-01T10:38:49;98553.22;;;-0.63;54.86
58239;BME280;44037;55.638;37.356;2023-03-01T10:41:19;98543.97;;;-0.37;54.72
58239;BME280;44037;55.638;37.356;2023-03-01T10:43:50;98550.56;;;-0.42;53.79
58239;BME280;44037;55.638;37.356;2023-03-01T10:46:25;98554.31;;;-0.32;54.37
58239;BME280;44037;55.638;37.356;2023-03-01T10:49:14;98551.75;;;-0.32;53.59
58239;BME280;44037;55.638;37.356;2023-03-01T10:51:44;98539.47;;;-0.68;54.06
58239;BME280;44037;55.638;37.356;2023-03-01T10:54:17;98555.03;;;-0.83;54.77
58239;BME280;44037;55.638;37.356;2023-03-01T10:56:49;98557.97;;;-0.95;54.56
58239;BME280;44037;55.638;37.356;2023-03-01T10:59:27;98553.41;;;-0.81;55.65
58239;BME280;44037;55.638;37.356;2023-03-01T11:02:08;98543.38;;;-0.54;55.96
58239;BME280;44037;55.638;37.356;2023-03-01T11:04:57;98547.88;;;-0.22;53.86
58239;BME280;44037;55.638;37.356;2023-03-01T11:07:25;98534.22;;;0.02;52.46
58239;BME280;44037;55.638;37.356;2023-03-01T11:09:52;98539.69;;;0.12;52.75
58239;BME280;44037;55.638;37.356;2023-03-01T11:12:20;98545.09;;;-0.04;51.27
58239;BME280;44037;55.638;37.356;2023-03-01T11:14:48;98535.06;;;-0.24;51.85
58239;BME280;44037;55.638;37.356;2023-03-01T11:17:21;98531.19;;;-0.12;51.71
58239;BME280;44037;55.638;37.356;2023-03-01T11:20:02;98542.22;;;-0.13;51.31
58239;BME280;44037;55.638;37.356;2023-03-01T11:22:33;98539.03;;;-0.32;51.24
58239;BME280;44037;55.638;37.356;2023-03-01T11:25:03;98550.25;;;-0.51;51.31
58239;BME280;44037;55.638;37.356;2023-03-01T11:27:31;98534.00;;;-0.55;51.69
58239;BME280;44037;55.638;37.356;2023-03-01T11:30:03;98555.06;;;-0.59;51.09
58239;BME280;44037;55.638;37.356;2023-03-01T11:32:38;98553.16;;;-0.65;50.77
58239;BME280;44037;55.638;37.356;2023-03-01T11:35:14;98546.84;;;-0.52;50.96
58239;BME280;44037;55.638;37.356;2023-03-01T11:37:50;98552.66;;;-0.54;51.01
58239;BME280;44037;55.638;37.356;2023-03-01T11:40:25;98567.50;;;-0.89;50.68
58239;BME280;44037;55.638;37.356;2023-03-01T11:43:02;98546.75;;;-1.00;50.53
58239;BME280;44037;55.638;37.356;2023-03-01T11:45:43;98548.94;;;-0.87;51.67
58239;BME280;44037;55.638;37.356;2023-03-01T11:48:39;98547.34;;;-0.85;52.23
58239;BME280;44037;55.638;37.356;2023-03-01T11:51:20;98549.41;;;-0.74;52.97
58239;BME280;44037;55.638;37.356;2023-03-01T11:54:01;98554.56;;;-0.73;52.40
58239;BME280;44037;55.638;37.356;2023-03-01T11:56:34;98548.50;;;-0.76;50.76
58239;BME280;44037;55.638;37.356;2023-03-01T11:59:19;98550.94;;;-0.55;51.61
58239;BME280;44037;55.638;37.356;2023-03-01T12:02:02;98549.03;;;-0.38;50.62
58239;BME280;44037;55.638;37.356;2023-03-01T12:07:46;98546.28;;;-0.19;51.36
58239;BME280;44037;55.638;37.356;2023-03-01T12:10:23;98554.63;;;-0.23;51.24
58239;BME280;44037;55.638;37.356;2023-03-01T12:13:03;98548.59;;;-0.01;51.56
58239;BME280;44037;55.638;37.356;2023-03-01T12:15:42;98557.19;;;0.03;50.55
58239;BME280;44037;55.638;37.356;2023-03-01T12:18:48;98572.41;;;0.00;50.60
58239;BME280;44037;55.638;37.356;2023-03-01T12:21:24;98556.91;;;-0.06;51.04
58239;BME280;44037;55.638;37.356;2023-03-01T12:24:18;98564.31;;;-0.12;51.04
58239;BME280;44037;55.638;37.356;2023-03-01T12:26:57;98557.78;;;-0.30;51.13
58239;BME280;44037;55.638;37.356;2023-03-01T12:29:32;98553.38;;;-0.34;51.71
58239;BME280;44037;55.638;37.356;2023-03-01T12:32:28;98554.19;;;-0.35;51.87
58239;BME280;44037;55.638;37.356;2023-03-01T12:35:10;98558.84;;;-0.48;51.39
58239;BME280;44037;55.638;37.356;2023-03-01T12:37:51;98565.31;;;-0.57;51.99
58239;BME280;44037;55.638;37.356;2023-03-01T12:40:36;98566.13;;;-0.58;51.62
58239;BME280;44037;55.638;37.356;2023-03-01T12:43:31;98558.84;;;-0.72;51.86
58239;BME280;44037;55.638;37.356;2023-03-01T12:46:10;98576.50;;;-0.76;51.75
58239;BME280;44037;55.638;37.356;2023-03-01T12:48:48;98574.66;;;-0.79;51.69
58239;BME280;44037;55.638;37.356;2023-03-01T12:51:22;98573.38;;;-0.92;51.72
58239;BME280;44037;55.638;37.356;2023-03-01T12:53:52;98580.00;;;-0.96;52.00
58239;BME280;44037;55.638;37.356;2023-03-01T12:56:23;98578.09;;;-1.01;52.34
58239;BME280;44037;55.638;37.356;2023-03-01T12:59:01;98580.97;;;-1.15;52.21
58239;BME280;44037;55.638;37.356;2023-03-01T13:01:36;98562.72;;;-1.27;52.45
58239;BME280;44037;55.638;37.356;2023-03-01T13:04:21;98574.09;;;-1.39;52.41
58239;BME280;44037;55.638;37.356;2023-03-01T13:07:17;98580.44;;;-1.50;52.26
58239;BME280;44037;55.638;37.356;2023-03-01T13:09:53;98585.41;;;-1.53;53.07